Time;durP1;ratioP1;P1;durP2;ratioP2;P2;SDS_P1;SDS_P2;PMS_P1;PMS_P2;Temp;Humidity;BMP_temperature;BMP_pressure;BME280_temperature;BME280_humidity;BME280_pressure;Samples;Min_cycle;Max_cycle;Signal;HPM_P1;HPM_P2
2023/01/13 00:01:57;;;;;;;;;;;10.40;99.90;;;;;;5096100;28;19908;-63
2023/01/13 00:04:22;;;;;;;;;;;10.30;99.90;;;;;;5078084;28;19908;-63
2023/01/13 00:06:48;;;;;;;;;;;10.40;99.90;;;;;;5096270;28;19962;-63
2023/01/13 00:09:13;;;;;;;;;;;10.40;99.90;;;;;;5095939;28;19938;-64
2023/01/13 00:11:39;;;;;;;;;;;10.40;99.90;;;;;;5095900;28;20412;-64
2023/01/13 00:14:04;;;;;;;;;;;10.30;99.90;;;;;;5095674;28;19931;-63
2023/01/13 00:16:30;;;;;;;;;;;10.30;99.90;;;;;;5095945;28;19916;-63
2023/01/13 00:18:55;;;;;;;;;;;10.20;99.90;;;;;;5096051;28;19908;-64
2023/01/13 00:21:22;;;;;;;;;;;10.10;99.90;;;;;;5095717;28;19915;-63
2023/01/13 00:23:48;;;;;;;;;;;10.10;99.90;;;;;;5095908;28;19915;-63
2023/01/13 00:26:17;;;;;;;;;;;10.00;99.90;;;;;;5095575;28;20357;-64
2023/01/13 00:28:42;;;;;;;;;;;9.90;99.90;;;;;;5095804;28;19915;-63
2023/01/13 00:31:09;;;;;;;;;;;9.80;99.90;;;;;;5095771;28;19912;-64
2023/01/13 00:33:35;;;;;;;;;;;9.70;99.90;;;;;;5095443;28;19908;-63
2023/01/13 00:36:01;;;;;;;;;;;9.70;99.90;;;;;;5095621;28;19912;-64
2023/01/13 00:38:27;;;;;;;;;;;9.60;99.90;;;;;;5095599;28;19962;-64
2023/01/13 00:41:08;;;;;;;;;;;9.60;99.90;;;;;;5095332;28;19908;-64
2023/01/13 00:43:35;;;;;;;;;;;9.70;99.90;;;;;;5095263;28;19909;-64
2023/01/13 00:46:00;;;;;;;;;;;9.70;99.90;;;;;;5095193;28;19915;-64
2023/01/13 00:48:27;;;;;;;;;;;9.60;99.90;;;;;;5095177;28;19908;-64
2023/01/13 00:51:09;;;;;;;;;;;9.50;99.90;;;;;;5095188;28;20281;-64
2023/01/13 00:53:36;;;;;;;;;;;9.50;99.90;;;;;;5095104;28;20003;-64
2023/01/13 00:56:03;;;;;;;;;;;9.50;99.90;;;;;;5094864;28;19957;-64
2023/01/13 00:58:30;;;;;;;;;;;9.50;99.90;;;;;;5094845;28;20373;-64
2023/01/13 01:01:00;;;;;;;;;;;9.50;99.90;;;;;;5094735;28;20389;-64
2023/01/13 01:03:25;;;;;;;;;;;9.50;99.90;;;;;;5095242;28;19908;-64
2023/01/13 01:05:51;;;;;;;;;;;9.50;99.90;;;;;;5095080;28;20392;-64
2023/01/13 01:08:16;;;;;;;;;;;9.50;99.90;;;;;;5094787;28;19908;-64
2023/01/13 01:10:42;;;;;;;;;;;9.50;99.90;;;;;;5095035;28;19922;-64
2023/01/13 01:13:10;;;;;;;;;;;9.50;99.90;;;;;;5094940;28;19935;-64
2023/01/13 01:15:39;;;;;;;;;;;9.50;99.90;;;;;;5094480;28;20025;-64
2023/01/13 01:18:04;;;;;;;;;;;9.50;99.90;;;;;;5094586;28;19908;-64
2023/01/13 01:20:29;;;;;;;;;;;9.60;99.90;;;;;;5094833;28;19914;-64
2023/01/13 01:22:55;;;;;;;;;;;9.60;99.90;;;;;;5094579;28;19908;-64
2023/01/13 01:25:20;;;;;;;;;;;9.60;99.90;;;;;;5094739;28;19908;-64
2023/01/13 01:27:46;;;;;;;;;;;9.70;99.90;;;;;;5094457;28;20366;-63
2023/01/13 01:30:11;;;;;;;;;;;9.70;99.90;;;;;;5076340;28;20293;-64
2023/01/13 01:32:37;;;;;;;;;;;9.80;99.90;;;;;;5094610;28;19931;-64
2023/01/13 01:35:03;;;;;;;;;;;9.80;99.90;;;;;;5076012;28;20365;-63
2023/01/13 01:37:29;;;;;;;;;;;9.90;99.90;;;;;;5094516;28;19919;-64
2023/01/13 01:39:54;;;;;;;;;;;10.00;99.90;;;;;;5094205;28;19908;-64
2023/01/13 01:45:12;;;;;;;;;;;10.00;99.90;;;;;;5093991;28;19908;-64
2023/01/13 01:47:38;;;;;;;;;;;10.00;99.90;;;;;;5094165;28;19973;-64
2023/01/13 01:50:04;;;;;;;;;;;9.90;99.90;;;;;;5094342;28;19915;-64
2023/01/13 01:52:32;;;;;;;;;;;10.00;99.90;;;;;;5094064;28;20285;-64
2023/01/13 01:55:02;;;;;;;;;;;9.90;99.90;;;;;;5093948;28;19912;-64
2023/01/13 01:57:31;;;;;;;;;;;9.90;99.90;;;;;;5094260;28;19915;-64
2023/01/13 01:59:57;;;;;;;;;;;9.90;99.90;;;;;;5093942;28;19908;-64
2023/01/13 02:02:22;;;;;;;;;;;9.80;99.90;;;;;;5093942;28;19958;-64
2023/01/13 02:04:50;;;;;;;;;;;9.80;99.90;;;;;;5093865;28;19918;-64
2023/01/13 02:07:18;;;;;;;;;;;9.80;99.90;;;;;;5094114;28;20297;-64
2023/01/13 02:09:44;;;;;;;;;;;9.80;99.90;;;;;;5094091;28;19908;-64
2023/01/13 02:12:40;;;;;;;;;;;9.80;99.90;;;;;;5093590;28;19915;-64
2023/01/13 02:14:56;;;;;;;;;;;9.80;99.90;;;;;;5093350;28;20007;-64
2023/01/13 02:17:29;;;;;;;;;;;9.80;99.90;;;;;;5094011;28;20364;-64
2023/01/13 02:19:58;;;;;;;;;;;9.80;99.90;;;;;;5093737;28;19908;-64
2023/01/13 02:22:31;;;;;;;;;;;9.80;99.90;;;;;;5093730;28;19908;-64
2023/01/13 02:25:05;;;;;;;;;;;9.70;99.90;;;;;;5094045;28;19912;-65
2023/01/13 02:27:39;;;;;;;;;;;9.80;99.90;;;;;;5093652;28;19915;-64
2023/01/13 02:33:29;;;;;;;;;;;9.80;99.90;;;;;;5093356;28;19908;-64
2023/01/13 02:36:05;;;;;;;;;;;9.70;99.90;;;;;;5093586;28;20370;-64
2023/01/13 02:38:36;;;;;;;;;;;9.70;99.90;;;;;;5093549;28;19915;-64
2023/01/13 02:44:06;;;;;;;;;;;9.50;99.90;;;;;;5093278;28;19915;-64
2023/01/13 02:46:33;;;;;;;;;;;9.50;99.90;;;;;;5093762;28;19970;-64
2023/01/13 02:49:01;;;;;;;;;;;9.50;99.90;;;;;;5093442;28;19912;-64
2023/01/13 02:51:28;;;;;;;;;;;9.50;99.90;;;;;;5093391;28;19915;-64
2023/01/13 02:53:58;;;;;;;;;;;9.50;99.90;;;;;;5093395;28;19916;-64
2023/01/13 02:56:25;;;;;;;;;;;9.60;99.90;;;;;;5093285;28;19960;-64
2023/01/13 02:58:52;;;;;;;;;;;9.50;99.90;;;;;;5093353;28;20003;-64
2023/01/13 03:01:18;;;;;;;;;;;9.50;99.90;;;;;;5075297;28;19908;-64
2023/01/13 03:03:43;;;;;;;;;;;9.50;99.90;;;;;;5093296;28;19915;-64
2023/01/13 03:06:28;;;;;;;;;;;9.50;99.90;;;;;;5093342;28;19908;-64
2023/01/13 03:09:14;;;;;;;;;;;9.50;99.90;;;;;;5093040;28;20412;-64
2023/01/13 03:11:59;;;;;;;;;;;9.50;99.90;;;;;;5093137;28;20271;-64
2023/01/13 03:14:29;;;;;;;;;;;9.50;99.90;;;;;;5078162;28;20382;-64
2023/01/13 03:17:04;;;;;;;;;;;9.50;99.90;;;;;;5093366;28;19912;-64
2023/01/13 03:22:31;;;;;;;;;;;9.40;99.90;;;;;;5071233;28;19913;-63
2023/01/13 03:25:02;;;;;;;;;;;9.30;99.90;;;;;;5070951;28;20022;-64
2023/01/13 03:27:32;;;;;;;;;;;9.30;99.90;;;;;;5070921;28;19960;-64
2023/01/13 03:30:01;;;;;;;;;;;9.40;99.90;;;;;;5070874;28;20362;-64
2023/01/13 03:32:44;;;;;;;;;;;9.40;99.90;;;;;;5070842;28;19915;-64
2023/01/13 03:35:13;;;;;;;;;;;9.30;99.90;;;;;;5071065;28;19916;-63
2023/01/13 03:37:41;;;;;;;;;;;9.30;99.90;;;;;;5070801;28;19944;-63
2023/01/13 03:40:09;;;;;;;;;;;9.30;99.90;;;;;;5070566;28;19967;-63
2023/01/13 03:42:36;;;;;;;;;;;9.20;99.90;;;;;;5070617;28;20018;-63
2023/01/13 03:45:06;;;;;;;;;;;9.20;99.90;;;;;;5070860;28;20142;-63
2023/01/13 03:47:36;;;;;;;;;;;9.10;99.90;;;;;;5069274;28;19908;-63
2023/01/13 03:50:05;;;;;;;;;;;9.10;99.90;;;;;;5070762;28;19935;-63
2023/01/13 03:52:33;;;;;;;;;;;9.00;99.90;;;;;;5070679;28;19915;-63
2023/01/13 03:55:04;;;;;;;;;;;9.00;99.90;;;;;;5070395;28;19909;-64
2023/01/13 03:57:33;;;;;;;;;;;9.00;99.90;;;;;;5070575;28;20285;-63
2023/01/13 03:59:59;;;;;;;;;;;8.90;99.90;;;;;;5070198;28;20285;-64
2023/01/13 04:02:32;;;;;;;;;;;8.90;99.90;;;;;;5070504;28;20359;-63
2023/01/13 04:04:59;;;;;;;;;;;8.90;99.90;;;;;;5070488;28;19909;-63
2023/01/13 04:07:31;;;;;;;;;;;9.00;99.90;;;;;;5070162;28;19909;-63
2023/01/13 04:09:58;;;;;;;;;;;8.90;99.90;;;;;;5070064;28;19909;-63
2023/01/13 04:12:59;;;;;;;;;;;8.90;99.90;;;;;;5069994;28;20282;-65
2023/01/13 04:15:13;;;;;;;;;;;8.90;99.90;;;;;;5069864;28;20302;-63
2023/01/13 04:17:38;;;;;;;;;;;8.80;99.90;;;;;;5069885;28;19958;-63
2023/01/13 04:20:04;;;;;;;;;;;8.80;99.90;;;;;;5072522;28;19921;-63
2023/01/13 04:22:30;;;;;;;;;;;8.80;99.90;;;;;;5090152;28;19909;-63
2023/01/13 04:24:55;;;;;;;;;;;8.60;99.90;;;;;;5090069;28;19951;-63
2023/01/13 04:27:21;;;;;;;;;;;8.60;99.90;;;;;;5089979;28;19908;-63
2023/01/13 04:29:46;;;;;;;;;;;8.50;99.90;;;;;;5089896;28;19909;-63
2023/01/13 04:32:11;;;;;;;;;;;8.50;99.90;;;;;;5083893;28;19913;-62
2023/01/13 04:34:37;;;;;;;;;;;8.50;99.90;;;;;;5076348;28;19909;-63
2023/01/13 04:37:02;;;;;;;;;;;8.50;99.90;;;;;;5076246;28;20049;-62
2023/01/13 04:39:28;;;;;;;;;;;8.40;99.90;;;;;;5076418;28;19908;-63
2023/01/13 04:41:56;;;;;;;;;;;8.50;99.90;;;;;;5058232;28;19912;-63
2023/01/13 04:44:22;;;;;;;;;;;8.40;99.90;;;;;;5076355;28;19909;-63
2023/01/13 04:46:47;;;;;;;;;;;8.40;99.90;;;;;;5076079;28;19954;-63
2023/01/13 04:49:13;;;;;;;;;;;8.30;99.90;;;;;;5076096;28;19908;-63
2023/01/13 04:51:38;;;;;;;;;;;8.30;99.90;;;;;;5076300;28;19915;-63
2023/01/13 04:54:04;;;;;;;;;;;8.30;99.90;;;;;;5076255;28;19908;-63
2023/01/13 04:56:34;;;;;;;;;;;8.20;99.90;;;;;;5076230;28;19915;-63
2023/01/13 04:58:59;;;;;;;;;;;8.30;99.90;;;;;;5075937;28;19938;-64
2023/01/13 05:01:25;;;;;;;;;;;8.30;99.90;;;;;;5076013;28;20004;-63
2023/01/13 05:03:50;;;;;;;;;;;8.30;99.90;;;;;;5076075;28;20323;-63
2023/01/13 05:06:16;;;;;;;;;;;8.20;99.90;;;;;;5076077;28;19909;-63
2023/01/13 05:08:41;;;;;;;;;;;8.30;99.90;;;;;;5076043;28;19952;-63
2023/01/13 05:16:58;;;;;;;;;;;8.30;99.90;;;;;;5075670;28;20393;-63
2023/01/13 05:17:08;;;;;;;;;;;8.20;99.90;;;;;;5075352;28;19908;-63
2023/01/13 05:19:23;;;;;;;;;;;8.30;99.90;;;;;;5075315;28;19959;-63
2023/01/13 05:27:19;;;;;;;;;;;8.30;99.90;;;;;;5075199;28;19908;-63
2023/01/13 05:29:44;;;;;;;;;;;8.30;99.90;;;;;;5075539;28;19915;-63
2023/01/13 05:32:10;;;;;;;;;;;8.40;99.90;;;;;;5075318;28;20409;-63
2023/01/13 05:34:35;;;;;;;;;;;8.40;99.90;;;;;;5075495;28;19999;-63
2023/01/13 05:37:02;;;;;;;;;;;8.40;99.90;;;;;;5075436;28;19915;-63
2023/01/13 05:43:18;;;;;;;;;;;8.50;99.90;;;;;;5075344;28;19908;-63
2023/01/13 05:44:58;;;;;;;;;;;8.60;99.90;;;;;;5073826;28;19908;-63
2023/01/13 05:47:23;;;;;;;;;;;8.60;99.90;;;;;;5075087;28;20381;-63
2023/01/13 05:49:49;;;;;;;;;;;8.60;99.90;;;;;;5075184;28;20278;-63
2023/01/13 05:52:14;;;;;;;;;;;8.60;99.90;;;;;;5074885;28;19955;-63
2023/01/13 05:54:40;;;;;;;;;;;8.50;99.90;;;;;;5074825;28;19908;-63
2023/01/13 05:57:05;;;;;;;;;;;8.50;99.90;;;;;;5075033;28;19909;-63
2023/01/13 05:59:31;;;;;;;;;;;8.50;99.90;;;;;;5074689;28;19946;-63
2023/01/13 06:01:56;;;;;;;;;;;8.50;99.90;;;;;;5074882;28;20053;-63
2023/01/13 06:04:21;;;;;;;;;;;8.50;99.90;;;;;;5074621;28;19913;-63
2023/01/13 06:06:47;;;;;;;;;;;8.50;99.90;;;;;;5074589;28;19909;-63
2023/01/13 06:09:13;;;;;;;;;;;8.40;99.90;;;;;;5074815;28;19915;-63
2023/01/13 06:11:38;;;;;;;;;;;8.30;99.90;;;;;;5074755;28;20454;-63
2023/01/13 06:14:04;;;;;;;;;;;8.20;99.90;;;;;;5074523;28;20405;-63
2023/01/13 06:16:29;;;;;;;;;;;8.20;99.90;;;;;;5074382;28;20050;-63
2023/01/13 06:18:55;;;;;;;;;;;8.20;99.90;;;;;;5074320;28;19915;-63
2023/01/13 06:21:20;;;;;;;;;;;8.20;99.90;;;;;;5074025;28;19921;-63
2023/01/13 06:23:45;;;;;;;;;;;8.20;99.90;;;;;;5074248;28;19909;-63
2023/01/13 06:26:14;;;;;;;;;;;8.20;99.90;;;;;;5074227;28;20427;-63
2023/01/13 06:28:40;;;;;;;;;;;8.10;99.90;;;;;;5074379;28;19916;-63
2023/01/13 06:31:07;;;;;;;;;;;8.20;99.90;;;;;;5056271;28;19909;-63
2023/01/13 06:33:35;;;;;;;;;;;8.10;99.90;;;;;;5074290;28;19912;-63
2023/01/13 06:36:02;;;;;;;;;;;8.20;99.90;;;;;;5073979;28;19909;-63
2023/01/13 06:38:29;;;;;;;;;;;8.20;99.90;;;;;;5073959;28;20001;-63
2023/01/13 06:40:55;;;;;;;;;;;8.20;99.90;;;;;;5074006;28;19935;-64
2023/01/13 06:43:20;;;;;;;;;;;8.20;99.90;;;;;;5039473;28;19909;-64
2023/01/13 06:45:54;;;;;;;;;;;8.30;99.90;;;;;;5073862;28;19915;-64
2023/01/13 06:48:22;;;;;;;;;;;8.30;99.90;;;;;;5074049;28;19908;-64
2023/01/13 06:50:47;;;;;;;;;;;8.40;99.90;;;;;;5073685;28;20380;-64
2023/01/13 06:53:12;;;;;;;;;;;8.40;99.90;;;;;;5039179;28;19915;-64
2023/01/13 06:55:38;;;;;;;;;;;8.40;99.90;;;;;;5073449;28;19908;-64
2023/01/13 06:58:04;;;;;;;;;;;8.40;99.90;;;;;;5067806;28;19920;-66
2023/01/13 07:00:31;;;;;;;;;;;8.40;99.90;;;;;;5071373;28;19934;-65
2023/01/13 07:03:12;;;;;;;;;;;8.40;99.90;;;;;;5070707;28;20310;-64
2023/01/13 07:05:38;;;;;;;;;;;8.40;99.90;;;;;;5074988;28;20325;-64
2023/01/13 07:08:04;;;;;;;;;;;8.40;99.90;;;;;;5077829;28;19955;-64
2023/01/13 07:10:30;;;;;;;;;;;8.40;99.90;;;;;;5071051;28;20385;-63
2023/01/13 07:16:03;;;;;;;;;;;8.50;99.90;;;;;;5065329;28;20297;-65
2023/01/13 07:18:30;;;;;;;;;;;8.50;99.90;;;;;;5053266;28;19963;-63
2023/01/13 07:20:57;;;;;;;;;;;8.60;99.90;;;;;;5069466;28;19935;-64
2023/01/13 07:23:23;;;;;;;;;;;8.60;99.90;;;;;;5073313;28;20384;-64
2023/01/13 07:25:49;;;;;;;;;;;8.60;99.90;;;;;;5073287;28;19913;-65
2023/01/13 07:28:14;;;;;;;;;;;8.60;99.90;;;;;;5073523;28;19908;-64
2023/01/13 07:30:40;;;;;;;;;;;8.60;99.90;;;;;;5059531;28;19913;-64
2023/01/13 07:33:05;;;;;;;;;;;8.60;99.90;;;;;;5069120;28;19919;-64
2023/01/13 07:35:31;;;;;;;;;;;8.60;99.90;;;;;;5073075;28;19916;-64
2023/01/13 07:37:56;;;;;;;;;;;8.60;99.90;;;;;;5073320;28;19944;-65
2023/01/13 07:40:22;;;;;;;;;;;8.50;99.90;;;;;;5063178;28;19933;-63
2023/01/13 07:45:32;;;;;;;;;;;8.50;99.90;;;;;;5066290;28;19924;-64
2023/01/13 07:47:58;;;;;;;;;;;8.40;99.90;;;;;;5052901;28;19909;-64
2023/01/13 07:50:23;;;;;;;;;;;8.40;99.90;;;;;;5053214;28;19908;-65
2023/01/13 07:52:49;;;;;;;;;;;8.40;99.90;;;;;;5054973;28;19917;-64
2023/01/13 07:55:15;;;;;;;;;;;8.30;99.90;;;;;;5077096;28;19928;-64
2023/01/13 07:57:40;;;;;;;;;;;8.30;99.90;;;;;;5073177;28;19916;-64
2023/01/13 08:00:06;;;;;;;;;;;8.30;99.90;;;;;;5064380;28;20310;-64
2023/01/13 08:02:32;;;;;;;;;;;8.30;99.90;;;;;;5071449;28;20050;-64
2023/01/13 08:04:57;;;;;;;;;;;8.30;99.90;;;;;;5071856;28;19920;-64
2023/01/13 08:07:22;;;;;;;;;;;8.40;99.90;;;;;;5072971;28;20385;-64
2023/01/13 08:09:48;;;;;;;;;;;8.40;99.90;;;;;;5076628;28;20403;-64
2023/01/13 08:14:59;;;;;;;;;;;8.50;99.90;;;;;;5056378;28;19912;-64
2023/01/13 08:17:25;;;;;;;;;;;8.60;99.90;;;;;;5066975;28;19919;-64
2023/01/13 08:19:50;;;;;;;;;;;8.90;99.90;;;;;;5075315;28;19913;-64
2023/01/13 08:22:16;;;;;;;;;;;9.20;99.90;;;;;;5076305;28;19913;-63
2023/01/13 08:24:41;;;;;;;;;;;9.30;99.90;;;;;;5075650;28;19913;-64
2023/01/13 08:27:07;;;;;;;;;;;9.30;99.90;;;;;;5064923;28;19909;-64
2023/01/13 08:29:32;;;;;;;;;;;9.20;99.90;;;;;;5081952;28;19966;-65
2023/01/13 08:31:58;;;;;;;;;;;9.20;99.90;;;;;;5084223;28;20320;-64
2023/01/13 08:34:23;;;;;;;;;;;9.10;99.90;;;;;;5075783;28;19909;-64
2023/01/13 08:36:49;;;;;;;;;;;9.00;99.90;;;;;;5076412;28;19909;-64
2023/01/13 08:39:14;;;;;;;;;;;9.00;99.90;;;;;;5073947;28;19952;-63
2023/01/13 08:41:57;;;;;;;;;;;9.00;99.90;;;;;;5055709;28;19913;-64
2023/01/13 08:44:24;;;;;;;;;;;8.90;99.90;;;;;;5056259;28;19913;-63
2023/01/13 08:46:49;;;;;;;;;;;8.90;99.90;;;;;;5063736;28;20385;-64
2023/01/13 08:49:15;;;;;;;;;;;9.00;99.90;;;;;;5063552;28;20004;-64
2023/01/13 08:51:41;;;;;;;;;;;9.00;99.90;;;;;;5074196;28;19916;-65
2023/01/13 08:54:06;;;;;;;;;;;8.90;99.90;;;;;;5075287;28;19912;-64
2023/01/13 08:56:31;;;;;;;;;;;8.80;99.90;;;;;;5075768;28;19916;-65
2023/01/13 08:58:57;;;;;;;;;;;8.80;99.90;;;;;;5076115;28;20354;-64
2023/01/13 09:01:24;;;;;;;;;;;8.80;99.90;;;;;;5074753;28;19916;-64
2023/01/13 09:03:49;;;;;;;;;;;8.80;99.90;;;;;;5075503;28;19912;-64
2023/01/13 09:06:15;;;;;;;;;;;8.80;99.90;;;;;;5074998;28;19969;-64
2023/01/13 09:08:40;;;;;;;;;;;8.90;99.90;;;;;;5075272;28;19934;-64
2023/01/13 09:13:51;;;;;;;;;;;8.90;99.90;;;;;;5059671;28;19920;-64
2023/01/13 09:16:17;;;;;;;;;;;8.80;99.90;;;;;;5055755;28;19913;-64
2023/01/13 09:18:42;;;;;;;;;;;8.80;99.90;;;;;;5059447;28;19916;-64
2023/01/13 09:21:09;;;;;;;;;;;8.80;99.90;;;;;;5055567;28;20398;-64
2023/01/13 09:23:34;;;;;;;;;;;8.80;99.90;;;;;;5058706;28;20370;-64
2023/01/13 09:26:00;;;;;;;;;;;8.80;99.90;;;;;;5069046;28;19915;-64
2023/01/13 09:28:25;;;;;;;;;;;8.90;99.90;;;;;;5051924;28;19912;-64
2023/01/13 09:30:51;;;;;;;;;;;9.10;99.90;;;;;;5072747;28;19913;-64
2023/01/13 09:36:01;;;;;;;;;;;9.00;99.90;;;;;;5069693;28;19912;-64
2023/01/13 09:38:27;;;;;;;;;;;9.00;99.90;;;;;;5075250;28;19922;-64
2023/01/13 09:40:53;;;;;;;;;;;8.90;99.90;;;;;;5074866;28;20019;-64
2023/01/13 09:43:53;;;;;;;;;;;9.00;99.90;;;;;;5055677;28;19958;-64
2023/01/13 09:46:56;;;;;;;;;;;8.90;99.90;;;;;;5074651;28;19912;-64
2023/01/13 09:49:19;;;;;;;;;;;8.90;99.90;;;;;;5074573;28;19909;-64
2023/01/13 09:51:47;;;;;;;;;;;8.90;99.90;;;;;;5074950;28;19908;-64
2023/01/13 09:54:24;;;;;;;;;;;9.00;99.90;;;;;;5072267;28;19965;-64
2023/01/13 09:56:50;;;;;;;;;;;9.00;99.90;;;;;;5074113;28;19912;-64
2023/01/13 09:59:15;;;;;;;;;;;9.00;99.90;;;;;;5072625;28;19909;-64
2023/01/13 10:01:50;;;;;;;;;;;8.90;99.90;;;;;;5072724;28;19967;-64
2023/01/13 10:04:16;;;;;;;;;;;9.00;99.90;;;;;;5074336;28;19909;-64
2023/01/13 10:06:45;;;;;;;;;;;8.90;99.90;;;;;;5073984;28;19908;-63
2023/01/13 10:09:17;;;;;;;;;;;8.90;99.90;;;;;;5074482;28;19912;-64
2023/01/13 10:14:38;;;;;;;;;;;9.00;99.90;;;;;;5055355;28;20007;-64
2023/01/13 10:17:18;;;;;;;;;;;9.00;99.90;;;;;;5073530;28;20025;-64
2023/01/13 10:19:46;;;;;;;;;;;9.00;99.90;;;;;;5074527;28;20396;-63
2023/01/13 10:22:31;;;;;;;;;;;9.00;99.90;;;;;;5072641;28;19920;-64
2023/01/13 10:25:19;;;;;;;;;;;9.00;99.90;;;;;;5073002;28;20375;-64
2023/01/13 10:27:48;;;;;;;;;;;9.00;99.90;;;;;;5069446;28;19913;-64
2023/01/13 10:30:18;;;;;;;;;;;9.10;99.90;;;;;;5076098;28;19908;-63
2023/01/13 10:32:49;;;;;;;;;;;9.10;99.90;;;;;;5072331;28;19913;-64
2023/01/13 10:35:14;;;;;;;;;;;9.00;99.90;;;;;;5073838;28;19909;-63
2023/01/13 10:37:50;;;;;;;;;;;9.10;99.90;;;;;;5068109;28;20336;-64
2023/01/13 10:40:16;;;;;;;;;;;9.10;99.90;;;;;;5064877;28;19921;-64
2023/01/13 10:42:42;;;;;;;;;;;9.10;99.90;;;;;;5070604;28;19928;-63
2023/01/13 10:45:16;;;;;;;;;;;9.10;99.90;;;;;;5065996;28;19917;-64
2023/01/13 10:47:41;;;;;;;;;;;9.10;99.90;;;;;;5054164;28;20394;-64
2023/01/13 10:52:55;;;;;;;;;;;9.10;99.90;;;;;;5094507;27;19912;-63
2023/01/13 10:55:24;;;;;;;;;;;9.10;99.90;;;;;;5090995;28;20342;-63
2023/01/13 10:57:49;;;;;;;;;;;9.20;99.90;;;;;;5090874;28;20014;-63
2023/01/13 11:00:32;;;;;;;;;;;9.20;99.90;;;;;;5091000;28;20436;-63
2023/01/13 11:03:17;;;;;;;;;;;9.20;99.90;;;;;;5091817;28;20365;-63
2023/01/13 11:05:58;;;;;;;;;;;9.20;99.90;;;;;;5070436;28;19909;-63
2023/01/13 11:08:26;;;;;;;;;;;9.20;99.90;;;;;;5089647;28;19943;-65
2023/01/13 11:10:53;;;;;;;;;;;9.30;99.90;;;;;;5091841;28;19917;-63
2023/01/13 11:13:29;;;;;;;;;;;9.40;99.90;;;;;;5090720;28;19962;-63
2023/01/13 11:15:58;;;;;;;;;;;9.40;99.90;;;;;;5091371;28;19919;-63
2023/01/13 11:18:29;;;;;;;;;;;9.50;99.90;;;;;;5077144;28;19919;-63
2023/01/13 11:20:56;;;;;;;;;;;9.50;99.90;;;;;;5114641;28;19912;-63
2023/01/13 11:23:26;;;;;;;;;;;9.50;99.90;;;;;;5092170;28;19912;-63
2023/01/13 11:25:55;;;;;;;;;;;9.50;99.90;;;;;;5093840;28;19912;-63
2023/01/13 11:28:28;;;;;;;;;;;9.50;99.90;;;;;;5092643;28;19912;-63
2023/01/13 11:30:57;;;;;;;;;;;9.50;99.90;;;;;;5091374;28;20373;-63
2023/01/13 11:33:29;;;;;;;;;;;9.50;99.90;;;;;;5089802;28;19912;-62
2023/01/13 11:36:14;;;;;;;;;;;9.50;99.90;;;;;;5089392;28;19941;-63
2023/01/13 11:38:46;;;;;;;;;;;9.50;99.90;;;;;;5090395;28;19923;-65
2023/01/13 11:41:17;;;;;;;;;;;9.50;99.90;;;;;;5088479;28;19912;-63
2023/01/13 11:43:47;;;;;;;;;;;9.40;99.90;;;;;;5088780;28;19912;-63
2023/01/13 11:46:13;;;;;;;;;;;9.40;99.90;;;;;;5093168;28;19912;-63
2023/01/13 11:48:40;;;;;;;;;;;9.20;99.90;;;;;;5090375;28;19981;-64
2023/01/13 11:51:16;;;;;;;;;;;9.00;99.90;;;;;;5096026;28;19920;-64
2023/01/13 11:53:52;;;;;;;;;;;8.90;99.90;;;;;;5094838;28;19916;-64
2023/01/13 11:56:38;;;;;;;;;;;8.80;99.90;;;;;;5096783;28;19912;-64
2023/01/13 11:59:07;;;;;;;;;;;8.70;99.90;;;;;;5108162;28;20335;-64
2023/01/13 12:01:37;;;;;;;;;;;8.70;99.90;;;;;;5109985;28;19912;-64
2023/01/13 12:04:09;;;;;;;;;;;8.80;99.90;;;;;;5108228;28;20369;-64
2023/01/13 12:06:36;;;;;;;;;;;8.90;99.90;;;;;;5096940;28;19911;-65
2023/01/13 12:09:21;;;;;;;;;;;9.00;99.90;;;;;;5083655;28;20023;-64
2023/01/13 12:12:22;;;;;;;;;;;9.00;99.90;;;;;;5092163;28;19966;-64
2023/01/13 12:15:07;;;;;;;;;;;9.00;99.90;;;;;;5095918;28;19915;-64
2023/01/13 12:17:53;;;;;;;;;;;9.00;99.90;;;;;;5096515;28;20390;-65
2023/01/13 12:20:27;;;;;;;;;;;9.00;99.90;;;;;;5092885;28;19912;-64
2023/01/13 12:22:55;;;;;;;;;;;9.00;99.90;;;;;;5095847;28;19909;-64
2023/01/13 12:25:29;;;;;;;;;;;8.90;99.90;;;;;;5095451;28;19924;-63
2023/01/13 12:27:58;;;;;;;;;;;8.80;99.90;;;;;;5090846;28;20064;-64
2023/01/13 12:30:27;;;;;;;;;;;8.80;99.90;;;;;;5075545;28;19958;-64
2023/01/13 12:32:53;;;;;;;;;;;8.70;99.90;;;;;;5087193;28;19916;-64
2023/01/13 12:35:28;;;;;;;;;;;8.80;99.90;;;;;;5095759;28;19953;-64
2023/01/13 12:38:03;;;;;;;;;;;8.90;99.90;;;;;;5098773;28;19912;-65
2023/01/13 12:40:41;;;;;;;;;;;8.90;99.90;;;;;;5057365;28;19909;-64
2023/01/13 12:46:21;;;;;;;;;;;8.90;99.90;;;;;;5088319;28;19908;-63
2023/01/13 12:51:32;;;;;;;;;;;8.20;99.90;;;;;;5070251;28;19917;-63
2023/01/13 12:53:59;;;;;;;;;;;8.00;99.90;;;;;;5070509;28;19962;-63
2023/01/13 12:56:45;;;;;;;;;;;7.80;99.90;;;;;;5053014;28;20367;-63
2023/01/13 13:04:51;;;;;;;;;;;7.70;99.90;;;;;;5131807;27;19912;-63
2023/01/13 13:07:21;;;;;;;;;;;7.70;99.90;;;;;;5131847;27;19911;-64
2023/01/13 13:09:49;;;;;;;;;;;7.80;99.90;;;;;;5123518;27;19917;-66
2023/01/13 13:15:21;;;;;;;;;;;7.90;99.90;;;;;;5110693;28;19912;-63
2023/01/13 13:18:07;;;;;;;;;;;8.00;99.90;;;;;;5118249;27;19912;-63
2023/01/13 13:20:53;;;;;;;;;;;8.10;99.90;;;;;;5130294;27;19958;-63
2023/01/13 13:23:43;;;;;;;;;;;8.20;99.90;;;;;;5133094;27;20357;-63
2023/01/13 13:26:22;;;;;;;;;;;8.30;99.90;;;;;;5123845;28;19958;-63
2023/01/13 13:29:08;;;;;;;;;;;8.50;99.90;;;;;;5131904;27;20369;-63
2023/01/13 13:31:40;;;;;;;;;;;8.50;99.90;;;;;;5131495;28;19907;-63
2023/01/13 13:34:12;;;;;;;;;;;8.60;99.90;;;;;;5131532;27;19911;-63
2023/01/13 13:36:57;;;;;;;;;;;8.70;99.90;;;;;;5131443;27;19975;-64
2023/01/13 13:47:45;;;;;;;;;;;8.70;99.90;;;;;;5125795;27;19953;-63
2023/01/13 13:50:15;;;;;;;;;;;8.70;99.90;;;;;;5114827;27;19956;-63
2023/01/13 13:52:42;;;;;;;;;;;8.70;99.90;;;;;;5146852;27;20006;-64
2023/01/13 13:55:13;;;;;;;;;;;8.70;99.90;;;;;;5151315;27;20292;-63
2023/01/13 13:57:41;;;;;;;;;;;8.60;99.90;;;;;;5151492;27;19914;-63
2023/01/13 14:00:16;;;;;;;;;;;8.60;99.90;;;;;;5152044;27;19991;-64
2023/01/13 14:02:59;;;;;;;;;;;8.50;99.90;;;;;;5151320;27;19916;-63
2023/01/13 14:05:26;;;;;;;;;;;8.40;99.90;;;;;;5151901;27;20043;-63
2023/01/13 14:08:08;;;;;;;;;;;8.10;99.90;;;;;;5151799;27;19951;-63
2023/01/13 14:10:35;;;;;;;;;;;6.90;99.90;;;;;;5151721;27;19908;-63
2023/01/13 14:13:11;;;;;;;;;;;6.60;99.90;;;;;;5151460;27;19914;-63
2023/01/13 14:15:37;;;;;;;;;;;6.60;99.90;;;;;;5141012;27;20288;-63
2023/01/13 14:18:05;;;;;;;;;;;6.70;99.90;;;;;;5137883;27;19914;-63
2023/01/13 14:20:30;;;;;;;;;;;6.70;99.90;;;;;;5137748;27;19919;-63
2023/01/13 14:23:00;;;;;;;;;;;6.70;99.90;;;;;;5137655;27;20281;-63
2023/01/13 14:25:27;;;;;;;;;;;6.70;99.90;;;;;;5136191;27;19907;-61
2023/01/13 14:27:54;;;;;;;;;;;6.70;99.90;;;;;;5137509;27;19907;-61
2023/01/13 14:30:20;;;;;;;;;;;6.80;99.90;;;;;;5137269;27;20391;-61
2023/01/13 14:32:46;;;;;;;;;;;6.90;99.90;;;;;;5137277;27;20389;-61
2023/01/13 14:35:15;;;;;;;;;;;7.00;99.90;;;;;;5137192;27;19954;-62
2023/01/13 14:37:41;;;;;;;;;;;6.90;99.90;;;;;;5137134;27;19956;-61
2023/01/13 14:40:27;;;;;;;;;;;6.90;99.90;;;;;;5137389;27;19908;-61
2023/01/13 14:42:57;;;;;;;;;;;6.90;99.90;;;;;;5136889;27;19934;-61
2023/01/13 14:45:23;;;;;;;;;;;7.00;99.90;;;;;;5137298;27;19914;-61
2023/01/13 14:47:51;;;;;;;;;;;7.00;99.90;;;;;;5137280;27;20321;-62
2023/01/13 14:50:19;;;;;;;;;;;7.00;99.90;;;;;;5136956;27;20261;-61
2023/01/13 14:52:47;;;;;;;;;;;7.10;99.90;;;;;;5136892;27;19911;-62
2023/01/13 14:55:30;;;;;;;;;;;7.10;99.90;;;;;;5136731;27;19908;-61
2023/01/13 14:58:15;;;;;;;;;;;7.20;99.90;;;;;;5137111;27;20288;-61
2023/01/13 15:00:41;;;;;;;;;;;7.30;99.90;;;;;;5136724;27;20399;-61
2023/01/13 15:03:06;;;;;;;;;;;7.30;99.90;;;;;;5136558;27;19919;-62
2023/01/13 15:05:33;;;;;;;;;;;7.30;99.90;;;;;;5136623;27;19918;-61
2023/01/13 15:10:58;;;;;;;;;;;7.50;99.90;;;;;;5091239;27;19912;-60
2023/01/13 15:13:34;;;;;;;;;;;7.40;99.90;;;;;;5091146;28;19913;-61
2023/01/13 15:16:01;;;;;;;;;;;7.40;99.90;;;;;;5091131;28;19915;-61
2023/01/13 15:18:27;;;;;;;;;;;7.30;99.90;;;;;;5106714;28;20428;-61
2023/01/13 15:20:52;;;;;;;;;;;7.30;99.90;;;;;;5090962;28;19927;-61
2023/01/13 15:23:19;;;;;;;;;;;7.40;99.90;;;;;;5090902;28;19944;-61
2023/01/13 15:25:45;;;;;;;;;;;7.40;99.90;;;;;;5090879;28;19908;-61
2023/01/13 15:28:15;;;;;;;;;;;7.40;99.90;;;;;;5090876;28;19977;-62
2023/01/13 15:30:40;;;;;;;;;;;7.50;99.90;;;;;;5090952;28;19916;-61
2023/01/13 15:33:09;;;;;;;;;;;7.50;99.90;;;;;;5090696;28;20003;-60
2023/01/13 15:35:36;;;;;;;;;;;7.50;99.90;;;;;;5090693;28;19909;-61
2023/01/13 15:38:01;;;;;;;;;;;7.50;99.90;;;;;;5090616;28;19951;-61
2023/01/13 15:40:31;;;;;;;;;;;7.50;99.90;;;;;;5090597;28;19951;-61
2023/01/13 15:48:30;;;;;;;;;;;7.50;99.90;;;;;;5090236;28;19995;-61
2023/01/13 15:50:56;;;;;;;;;;;7.40;99.90;;;;;;5089135;28;19909;-61
2023/01/13 15:53:21;;;;;;;;;;;7.40;99.90;;;;;;5090280;28;19908;-61
2023/01/13 15:55:49;;;;;;;;;;;7.30;99.90;;;;;;5090563;28;19912;-61